sensor_id;sensor_type;location;lat;lon;timestamp;P1;durP1;ratioP1;P2;durP2;ratioP2
33246;SDS011;19606;50.108;19.804;2022-08-06T00:01:52;21.38;;;15.50;;
33246;SDS011;19606;50.108;19.804;2022-08-06T00:04:18;23.10;;;16.25;;
33246;SDS011;19606;50.108;19.804;2022-08-06T00:06:45;25.13;;;16.88;;
33246;SDS011;19606;50.108;19.804;2022-08-06T00:09:11;21.75;;;15.82;;
33246;SDS011;19606;50.108;19.804;2022-08-06T00:11:40;24.67;;;16.73;;
33246;SDS011;19606;50.108;19.804;2022-08-06T00:14:07;22.48;;;16.05;;
33246;SDS011;19606;50.108;19.804;2022-08-06T00:16:33;24.95;;;16.92;;
33246;SDS011;19606;50.108;19.804;2022-08-06T00:19:00;22.20;;;14.68;;
33246;SDS011;19606;50.108;19.804;2022-08-06T00:21:26;20.23;;;16.02;;
33246;SDS011;19606;50.108;19.804;2022-08-06T00:23:52;24.55;;;16.95;;
33246;SDS011;19606;50.108;19.804;2022-08-06T00:26:18;25.92;;;17.48;;
33246;SDS011;19606;50.108;19.804;2022-08-06T00:28:44;24.48;;;17.10;;
33246;SDS011;19606;50.108;19.804;2022-08-06T00:31:10;21.55;;;15.43;;
33246;SDS011;19606;50.108;19.804;2022-08-06T00:33:36;21.27;;;16.80;;
33246;SDS011;19606;50.108;19.804;2022-08-06T00:36:02;20.15;;;16.27;;
33246;SDS011;19606;50.108;19.804;2022-08-06T00:38:28;26.33;;;17.60;;
33246;SDS011;19606;50.108;19.804;2022-08-06T00:40:54;29.40;;;19.45;;
33246;SDS011;19606;50.108;19.804;2022-08-06T00:43:21;30.38;;;20.02;;
33246;SDS011;19606;50.108;19.804;2022-08-06T00:45:47;23.58;;;17.08;;
33246;SDS011;19606;50.108;19.804;2022-08-06T00:48:13;24.77;;;18.02;;
33246;SDS011;19606;50.108;19.804;2022-08-06T00:50:39;27.20;;;17.55;;
33246;SDS011;19606;50.108;19.804;2022-08-06T00:53:05;22.55;;;16.67;;
33246;SDS011;19606;50.108;19.804;2022-08-06T00:55:31;22.52;;;16.40;;
33246;SDS011;19606;50.108;19.804;2022-08-06T00:57:59;22.08;;;16.73;;
33246;SDS011;19606;50.108;19.804;2022-08-06T01:00:25;22.70;;;17.25;;
33246;SDS011;19606;50.108;19.804;2022-08-06T01:02:51;20.63;;;18.02;;
33246;SDS011;19606;50.108;19.804;2022-08-06T01:05:17;23.55;;;17.52;;
33246;SDS011;19606;50.108;19.804;2022-08-06T01:07:43;23.65;;;18.52;;
33246;SDS011;19606;50.108;19.804;2022-08-06T01:10:09;26.52;;;17.92;;
33246;SDS011;19606;50.108;19.804;2022-08-06T01:12:35;27.17;;;18.27;;
33246;SDS011;19606;50.108;19.804;2022-08-06T01:15:02;24.02;;;17.77;;
33246;SDS011;19606;50.108;19.804;2022-08-06T01:20:20;29.23;;;18.60;;
33246;SDS011;19606;50.108;19.804;2022-08-06T01:30:49;23.20;;;18.40;;
33246;SDS011;19606;50.108;19.804;2022-08-06T01:33:17;23.17;;;16.95;;
33246;SDS011;19606;50.108;19.804;2022-08-06T01:35:47;21.80;;;18.02;;
33246;SDS011;19606;50.108;19.804;2022-08-06T01:38:21;20.80;;;16.73;;
33246;SDS011;19606;50.108;19.804;2022-08-06T01:40:48;25.40;;;18.83;;
33246;SDS011;19606;50.108;19.804;2022-08-06T01:43:16;22.85;;;17.45;;
33246;SDS011;19606;50.108;19.804;2022-08-06T01:45:42;21.30;;;16.85;;
33246;SDS011;19606;50.108;19.804;2022-08-06T01:48:16;24.63;;;19.05;;
33246;SDS011;19606;50.108;19.804;2022-08-06T01:50:47;26.10;;;19.20;;
33246;SDS011;19606;50.108;19.804;2022-08-06T01:53:16;25.50;;;17.52;;
33246;SDS011;19606;50.108;19.804;2022-08-06T01:55:43;24.27;;;18.15;;
33246;SDS011;19606;50.108;19.804;2022-08-06T01:58:10;29.63;;;20.23;;
33246;SDS011;19606;50.108;19.804;2022-08-06T02:00:37;28.50;;;18.08;;
33246;SDS011;19606;50.108;19.804;2022-08-06T02:03:10;22.80;;;17.83;;
33246;SDS011;19606;50.108;19.804;2022-08-06T02:05:36;28.83;;;18.88;;
33246;SDS011;19606;50.108;19.804;2022-08-06T02:08:03;26.77;;;18.52;;
33246;SDS011;19606;50.108;19.804;2022-08-06T02:10:30;25.10;;;19.35;;
33246;SDS011;19606;50.108;19.804;2022-08-06T02:12:58;21.00;;;17.52;;
33246;SDS011;19606;50.108;19.804;2022-08-06T02:15:26;24.02;;;17.30;;
33246;SDS011;19606;50.108;19.804;2022-08-06T02:18:02;24.92;;;19.10;;
33246;SDS011;19606;50.108;19.804;2022-08-06T02:20:35;28.23;;;20.08;;
33246;SDS011;19606;50.108;19.804;2022-08-06T02:23:02;28.65;;;19.15;;
33246;SDS011;19606;50.108;19.804;2022-08-06T02:25:30;28.25;;;19.42;;
33246;SDS011;19606;50.108;19.804;2022-08-06T02:27:56;24.55;;;18.35;;
33246;SDS011;19606;50.108;19.804;2022-08-06T02:30:23;24.38;;;18.38;;
33246;SDS011;19606;50.108;19.804;2022-08-06T02:32:50;22.92;;;18.35;;
33246;SDS011;19606;50.108;19.804;2022-08-06T02:35:16;29.33;;;18.33;;
33246;SDS011;19606;50.108;19.804;2022-08-06T02:37:46;26.90;;;17.90;;
33246;SDS011;19606;50.108;19.804;2022-08-06T02:40:35;26.00;;;18.83;;
33246;SDS011;19606;50.108;19.804;2022-08-06T02:45:27;25.23;;;18.17;;
33246;SDS011;19606;50.108;19.804;2022-08-06T02:50:48;29.85;;;19.30;;
33246;SDS011;19606;50.108;19.804;2022-08-06T02:53:23;22.85;;;19.13;;
33246;SDS011;19606;50.108;19.804;2022-08-06T02:55:54;28.90;;;20.05;;
33246;SDS011;19606;50.108;19.804;2022-08-06T03:00:56;28.17;;;19.98;;
33246;SDS011;19606;50.108;19.804;2022-08-06T03:03:23;26.02;;;19.98;;
33246;SDS011;19606;50.108;19.804;2022-08-06T03:05:50;25.88;;;20.27;;
33246;SDS011;19606;50.108;19.804;2022-08-06T03:08:18;30.73;;;20.40;;
33246;SDS011;19606;50.108;19.804;2022-08-06T03:10:46;29.83;;;21.30;;
33246;SDS011;19606;50.108;19.804;2022-08-06T03:13:13;26.00;;;20.80;;
33246;SDS011;19606;50.108;19.804;2022-08-06T03:15:39;25.90;;;20.92;;
33246;SDS011;19606;50.108;19.804;2022-08-06T03:18:06;27.40;;;19.65;;
33246;SDS011;19606;50.108;19.804;2022-08-06T03:20:32;27.13;;;20.25;;
33246;SDS011;19606;50.108;19.804;2022-08-06T03:23:01;36.13;;;22.30;;
33246;SDS011;19606;50.108;19.804;2022-08-06T03:25:27;27.50;;;21.70;;
33246;SDS011;19606;50.108;19.804;2022-08-06T03:27:54;34.10;;;21.98;;
33246;SDS011;19606;50.108;19.804;2022-08-06T03:30:21;28.95;;;20.88;;
33246;SDS011;19606;50.108;19.804;2022-08-06T03:32:48;33.50;;;22.45;;
33246;SDS011;19606;50.108;19.804;2022-08-06T03:35:15;31.75;;;22.33;;
33246;SDS011;19606;50.108;19.804;2022-08-06T03:37:41;34.55;;;23.73;;
33246;SDS011;19606;50.108;19.804;2022-08-06T03:40:08;34.90;;;23.30;;
33246;SDS011;19606;50.108;19.804;2022-08-06T03:42:34;26.70;;;21.27;;
33246;SDS011;19606;50.108;19.804;2022-08-06T03:45:00;31.02;;;23.58;;
33246;SDS011;19606;50.108;19.804;2022-08-06T03:47:29;34.42;;;23.92;;
33246;SDS011;19606;50.108;19.804;2022-08-06T03:50:18;34.88;;;23.85;;
33246;SDS011;19606;50.108;19.804;2022-08-06T03:52:46;35.10;;;25.00;;
33246;SDS011;19606;50.108;19.804;2022-08-06T03:55:14;32.85;;;24.20;;
33246;SDS011;19606;50.108;19.804;2022-08-06T03:57:43;34.45;;;23.73;;
33246;SDS011;19606;50.108;19.804;2022-08-06T04:00:10;34.05;;;23.40;;
33246;SDS011;19606;50.108;19.804;2022-08-06T04:02:42;30.30;;;22.90;;
33246;SDS011;19606;50.108;19.804;2022-08-06T04:05:10;35.85;;;23.95;;
33246;SDS011;19606;50.108;19.804;2022-08-06T04:07:36;29.52;;;22.70;;
33246;SDS011;19606;50.108;19.804;2022-08-06T04:10:02;30.25;;;24.38;;
33246;SDS011;19606;50.108;19.804;2022-08-06T04:12:28;27.15;;;22.42;;
33246;SDS011;19606;50.108;19.804;2022-08-06T04:14:55;32.03;;;23.50;;
33246;SDS011;19606;50.108;19.804;2022-08-06T04:17:21;32.40;;;22.95;;
33246;SDS011;19606;50.108;19.804;2022-08-06T04:19:48;27.60;;;20.17;;
33246;SDS011;19606;50.108;19.804;2022-08-06T04:22:14;24.88;;;19.55;;
33246;SDS011;19606;50.108;19.804;2022-08-06T04:24:40;25.25;;;20.17;;
33246;SDS011;19606;50.108;19.804;2022-08-06T04:27:07;25.48;;;19.33;;
33246;SDS011;19606;50.108;19.804;2022-08-06T04:29:35;22.20;;;19.67;;
33246;SDS011;19606;50.108;19.804;2022-08-06T04:32:01;27.25;;;20.48;;
33246;SDS011;19606;50.108;19.804;2022-08-06T04:34:28;24.83;;;18.88;;
33246;SDS011;19606;50.108;19.804;2022-08-06T04:36:55;27.73;;;21.42;;
33246;SDS011;19606;50.108;19.804;2022-08-06T04:39:23;29.63;;;21.30;;
33246;SDS011;19606;50.108;19.804;2022-08-06T04:41:49;28.50;;;20.92;;
33246;SDS011;19606;50.108;19.804;2022-08-06T04:44:15;32.28;;;21.40;;
33246;SDS011;19606;50.108;19.804;2022-08-06T04:46:41;33.13;;;20.42;;
33246;SDS011;19606;50.108;19.804;2022-08-06T04:49:13;26.15;;;18.20;;
33246;SDS011;19606;50.108;19.804;2022-08-06T04:51:39;22.40;;;18.25;;
33246;SDS011;19606;50.108;19.804;2022-08-06T04:54:05;23.83;;;17.40;;
33246;SDS011;19606;50.108;19.804;2022-08-06T04:56:31;24.67;;;17.35;;
33246;SDS011;19606;50.108;19.804;2022-08-06T04:58:58;20.77;;;16.45;;
33246;SDS011;19606;50.108;19.804;2022-08-06T05:01:24;20.58;;;17.17;;
33246;SDS011;19606;50.108;19.804;2022-08-06T05:03:49;26.95;;;16.55;;
33246;SDS011;19606;50.108;19.804;2022-08-06T05:06:18;19.77;;;15.82;;
33246;SDS011;19606;50.108;19.804;2022-08-06T05:08:45;25.23;;;16.77;;
33246;SDS011;19606;50.108;19.804;2022-08-06T05:11:16;20.77;;;14.30;;
33246;SDS011;19606;50.108;19.804;2022-08-06T05:13:45;21.50;;;14.82;;
33246;SDS011;19606;50.108;19.804;2022-08-06T05:16:12;21.17;;;15.35;;
33246;SDS011;19606;50.108;19.804;2022-08-06T05:21:35;20.25;;;15.48;;
33246;SDS011;19606;50.108;19.804;2022-08-06T05:24:02;15.88;;;14.20;;
33246;SDS011;19606;50.108;19.804;2022-08-06T05:26:28;18.30;;;14.90;;
33246;SDS011;19606;50.108;19.804;2022-08-06T05:28:54;20.13;;;14.45;;
33246;SDS011;19606;50.108;19.804;2022-08-06T05:31:33;18.45;;;14.60;;
33246;SDS011;19606;50.108;19.804;2022-08-06T05:34:00;17.52;;;14.95;;
33246;SDS011;19606;50.108;19.804;2022-08-06T05:36:26;24.25;;;14.35;;
33246;SDS011;19606;50.108;19.804;2022-08-06T05:38:52;18.55;;;13.90;;
33246;SDS011;19606;50.108;19.804;2022-08-06T05:41:18;17.50;;;13.63;;
33246;SDS011;19606;50.108;19.804;2022-08-06T05:43:44;17.40;;;13.63;;
33246;SDS011;19606;50.108;19.804;2022-08-06T05:46:15;16.75;;;13.82;;
33246;SDS011;19606;50.108;19.804;2022-08-06T05:48:43;15.35;;;13.05;;
33246;SDS011;19606;50.108;19.804;2022-08-06T05:53:59;19.45;;;13.18;;
33246;SDS011;19606;50.108;19.804;2022-08-06T05:56:28;18.75;;;14.98;;
33246;SDS011;19606;50.108;19.804;2022-08-06T05:58:56;17.35;;;13.80;;
33246;SDS011;19606;50.108;19.804;2022-08-06T06:01:24;18.00;;;13.70;;
33246;SDS011;19606;50.108;19.804;2022-08-06T06:03:51;15.07;;;13.48;;
33246;SDS011;19606;50.108;19.804;2022-08-06T06:06:21;16.10;;;12.95;;
33246;SDS011;19606;50.108;19.804;2022-08-06T06:08:48;19.20;;;13.35;;
33246;SDS011;19606;50.108;19.804;2022-08-06T06:11:14;21.20;;;13.20;;
33246;SDS011;19606;50.108;19.804;2022-08-06T06:13:42;13.55;;;11.93;;
33246;SDS011;19606;50.108;19.804;2022-08-06T06:29:01;13.82;;;11.73;;
33246;SDS011;19606;50.108;19.804;2022-08-06T06:36:32;15.82;;;11.95;;
33246;SDS011;19606;50.108;19.804;2022-08-06T06:39:07;15.88;;;11.15;;
33246;SDS011;19606;50.108;19.804;2022-08-06T06:41:39;14.07;;;10.93;;
33246;SDS011;19606;50.108;19.804;2022-08-06T06:44:09;15.85;;;11.93;;
33246;SDS011;19606;50.108;19.804;2022-08-06T06:49:40;12.25;;;10.38;;
33246;SDS011;19606;50.108;19.804;2022-08-06T06:52:42;13.43;;;9.88;;
33246;SDS011;19606;50.108;19.804;2022-08-06T06:55:02;11.50;;;9.95;;
33246;SDS011;19606;50.108;19.804;2022-08-06T06:57:31;13.98;;;10.95;;
33246;SDS011;19606;50.108;19.804;2022-08-06T06:59:59;14.10;;;9.95;;
33246;SDS011;19606;50.108;19.804;2022-08-06T07:02:27;15.13;;;11.95;;
33246;SDS011;19606;50.108;19.804;2022-08-06T07:04:56;15.52;;;12.75;;
33246;SDS011;19606;50.108;19.804;2022-08-06T07:07:22;19.13;;;14.52;;
33246;SDS011;19606;50.108;19.804;2022-08-06T07:09:49;15.80;;;14.10;;
33246;SDS011;19606;50.108;19.804;2022-08-06T07:12:19;15.63;;;14.13;;
33246;SDS011;19606;50.108;19.804;2022-08-06T07:14:45;14.65;;;13.23;;
33246;SDS011;19606;50.108;19.804;2022-08-06T07:17:11;12.95;;;11.70;;
33246;SDS011;19606;50.108;19.804;2022-08-06T07:19:38;12.45;;;11.23;;
33246;SDS011;19606;50.108;19.804;2022-08-06T07:22:04;13.85;;;10.50;;
33246;SDS011;19606;50.108;19.804;2022-08-06T07:24:31;12.95;;;9.10;;
33246;SDS011;19606;50.108;19.804;2022-08-06T07:26:58;10.02;;;9.00;;
33246;SDS011;19606;50.108;19.804;2022-08-06T07:29:25;9.85;;;8.07;;
33246;SDS011;19606;50.108;19.804;2022-08-06T07:31:52;9.25;;;8.43;;
33246;SDS011;19606;50.108;19.804;2022-08-06T07:34:20;7.75;;;6.95;;
33246;SDS011;19606;50.108;19.804;2022-08-06T07:36:48;7.78;;;6.95;;
33246;SDS011;19606;50.108;19.804;2022-08-06T07:39:17;10.32;;;7.40;;
33246;SDS011;19606;50.108;19.804;2022-08-06T07:41:46;9.30;;;7.65;;
33246;SDS011;19606;50.108;19.804;2022-08-06T07:44:13;8.40;;;6.75;;
33246;SDS011;19606;50.108;19.804;2022-08-06T07:46:41;9.05;;;6.43;;
33246;SDS011;19606;50.108;19.804;2022-08-06T07:49:08;8.98;;;6.40;;
33246;SDS011;19606;50.108;19.804;2022-08-06T07:51:35;11.45;;;6.93;;
33246;SDS011;19606;50.108;19.804;2022-08-06T07:54:02;7.55;;;6.80;;
33246;SDS011;19606;50.108;19.804;2022-08-06T07:56:28;12.23;;;6.32;;
33246;SDS011;19606;50.108;19.804;2022-08-06T07:58:55;9.90;;;7.20;;
33246;SDS011;19606;50.108;19.804;2022-08-06T08:01:24;7.88;;;6.40;;
33246;SDS011;19606;50.108;19.804;2022-08-06T08:03:51;12.90;;;6.80;;
33246;SDS011;19606;50.108;19.804;2022-08-06T08:06:37;7.65;;;6.25;;
33246;SDS011;19606;50.108;19.804;2022-08-06T08:11:30;8.27;;;5.90;;
33246;SDS011;19606;50.108;19.804;2022-08-06T08:13:57;5.43;;;4.93;;
33246;SDS011;19606;50.108;19.804;2022-08-06T08:16:23;6.28;;;5.40;;
33246;SDS011;19606;50.108;19.804;2022-08-06T08:18:51;8.23;;;5.30;;
33246;SDS011;19606;50.108;19.804;2022-08-06T08:21:17;5.28;;;4.85;;
33246;SDS011;19606;50.108;19.804;2022-08-06T08:23:44;7.57;;;5.38;;
33246;SDS011;19606;50.108;19.804;2022-08-06T08:26:11;5.28;;;4.78;;
33246;SDS011;19606;50.108;19.804;2022-08-06T08:28:37;7.30;;;5.22;;
33246;SDS011;19606;50.108;19.804;2022-08-06T08:31:03;7.05;;;5.30;;
33246;SDS011;19606;50.108;19.804;2022-08-06T08:33:31;5.25;;;4.75;;
33246;SDS011;19606;50.108;19.804;2022-08-06T08:35:58;6.75;;;4.38;;
33246;SDS011;19606;50.108;19.804;2022-08-06T08:38:24;6.20;;;3.65;;
33246;SDS011;19606;50.108;19.804;2022-08-06T08:40:51;4.85;;;2.92;;
33246;SDS011;19606;50.108;19.804;2022-08-06T08:43:22;4.03;;;3.38;;
33246;SDS011;19606;50.108;19.804;2022-08-06T08:45:48;4.60;;;3.63;;
33246;SDS011;19606;50.108;19.804;2022-08-06T08:48:16;5.18;;;3.50;;
33246;SDS011;19606;50.108;19.804;2022-08-06T08:50:43;5.15;;;2.83;;
33246;SDS011;19606;50.108;19.804;2022-08-06T08:53:12;5.10;;;3.05;;
33246;SDS011;19606;50.108;19.804;2022-08-06T08:55:38;3.97;;;3.25;;
33246;SDS011;19606;50.108;19.804;2022-08-06T08:58:05;3.65;;;3.10;;
33246;SDS011;19606;50.108;19.804;2022-08-06T09:00:32;3.65;;;2.75;;
33246;SDS011;19606;50.108;19.804;2022-08-06T09:02:59;3.88;;;3.03;;
33246;SDS011;19606;50.108;19.804;2022-08-06T09:05:25;3.58;;;3.25;;
33246;SDS011;19606;50.108;19.804;2022-08-06T09:07:51;3.22;;;3.03;;
33246;SDS011;19606;50.108;19.804;2022-08-06T09:10:17;3.72;;;3.42;;
33246;SDS011;19606;50.108;19.804;2022-08-06T09:12:43;5.10;;;3.10;;
33246;SDS011;19606;50.108;19.804;2022-08-06T09:15:12;4.35;;;3.97;;
33246;SDS011;19606;50.108;19.804;2022-08-06T09:17:38;5.10;;;3.60;;
33246;SDS011;19606;50.108;19.804;2022-08-06T09:20:04;5.15;;;3.13;;
33246;SDS011;19606;50.108;19.804;2022-08-06T09:22:30;4.05;;;3.65;;
33246;SDS011;19606;50.108;19.804;2022-08-06T09:24:56;4.57;;;3.30;;
33246;SDS011;19606;50.108;19.804;2022-08-06T09:27:22;5.15;;;3.55;;
33246;SDS011;19606;50.108;19.804;2022-08-06T09:29:49;4.20;;;3.80;;
33246;SDS011;19606;50.108;19.804;2022-08-06T09:35:00;4.50;;;3.67;;
33246;SDS011;19606;50.108;19.804;2022-08-06T09:37:27;3.97;;;3.53;;
33246;SDS011;19606;50.108;19.804;2022-08-06T09:39:54;5.20;;;3.30;;
33246;SDS011;19606;50.108;19.804;2022-08-06T09:42:36;6.78;;;3.13;;
33246;SDS011;19606;50.108;19.804;2022-08-06T09:45:06;5.25;;;3.60;;
33246;SDS011;19606;50.108;19.804;2022-08-06T09:47:33;5.87;;;3.33;;
33246;SDS011;19606;50.108;19.804;2022-08-06T09:49:59;2.90;;;2.65;;
33246;SDS011;19606;50.108;19.804;2022-08-06T09:52:25;2.58;;;2.38;;
33246;SDS011;19606;50.108;19.804;2022-08-06T09:54:51;3.20;;;2.85;;
33246;SDS011;19606;50.108;19.804;2022-08-06T09:57:17;5.35;;;3.00;;
33246;SDS011;19606;50.108;19.804;2022-08-06T09:59:44;3.80;;;2.75;;
33246;SDS011;19606;50.108;19.804;2022-08-06T10:02:14;3.63;;;2.40;;
33246;SDS011;19606;50.108;19.804;2022-08-06T10:04:40;2.83;;;2.63;;
33246;SDS011;19606;50.108;19.804;2022-08-06T10:07:06;3.15;;;2.28;;
33246;SDS011;19606;50.108;19.804;2022-08-06T10:09:33;2.55;;;2.35;;
33246;SDS011;19606;50.108;19.804;2022-08-06T10:12:00;6.22;;;3.03;;
33246;SDS011;19606;50.108;19.804;2022-08-06T10:14:27;2.97;;;2.30;;
33246;SDS011;19606;50.108;19.804;2022-08-06T10:17:07;2.58;;;2.38;;
33246;SDS011;19606;50.108;19.804;2022-08-06T10:19:34;4.10;;;2.50;;
33246;SDS011;19606;50.108;19.804;2022-08-06T10:22:10;3.03;;;2.72;;
33246;SDS011;19606;50.108;19.804;2022-08-06T10:24:46;4.03;;;2.92;;
33246;SDS011;19606;50.108;19.804;2022-08-06T10:27:13;3.88;;;2.90;;
33246;SDS011;19606;50.108;19.804;2022-08-06T10:29:41;2.38;;;2.22;;
33246;SDS011;19606;50.108;19.804;2022-08-06T10:32:08;3.15;;;2.35;;
33246;SDS011;19606;50.108;19.804;2022-08-06T10:34:35;3.45;;;2.30;;
33246;SDS011;19606;50.108;19.804;2022-08-06T10:37:02;4.20;;;3.00;;
33246;SDS011;19606;50.108;19.804;2022-08-06T10:39:33;3.83;;;3.40;;
33246;SDS011;19606;50.108;19.804;2022-08-06T10:41:59;11.02;;;3.88;;
33246;SDS011;19606;50.108;19.804;2022-08-06T10:44:26;6.68;;;4.15;;
33246;SDS011;19606;50.108;19.804;2022-08-06T10:46:53;4.10;;;3.30;;
33246;SDS011;19606;50.108;19.804;2022-08-06T10:49:19;4.20;;;3.72;;
33246;SDS011;19606;50.108;19.804;2022-08-06T10:51:46;3.95;;;3.47;;
33246;SDS011;19606;50.108;19.804;2022-08-06T10:54:13;4.85;;;4.00;;
33246;SDS011;19606;50.108;19.804;2022-08-06T10:56:40;5.95;;;5.20;;
33246;SDS011;19606;50.108;19.804;2022-08-06T10:59:06;6.68;;;5.72;;
33246;SDS011;19606;50.108;19.804;2022-08-06T11:07:20;6.00;;;5.43;;
33246;SDS011;19606;50.108;19.804;2022-08-06T11:14:24;6.63;;;5.72;;
33246;SDS011;19606;50.108;19.804;2022-08-06T11:16:56;5.90;;;5.00;;
33246;SDS011;19606;50.108;19.804;2022-08-06T11:19:44;8.85;;;5.30;;
33246;SDS011;19606;50.108;19.804;2022-08-06T11:22:26;10.07;;;5.57;;
33246;SDS011;19606;50.108;19.804;2022-08-06T11:24:54;12.15;;;6.40;;
33246;SDS011;19606;50.108;19.804;2022-08-06T11:30:11;8.98;;;6.13;;
33246;SDS011;19606;50.108;19.804;2022-08-06T11:35:43;4.15;;;3.40;;
33246;SDS011;19606;50.108;19.804;2022-08-06T11:38:03;1.98;;;1.77;;
33246;SDS011;19606;50.108;19.804;2022-08-06T11:43:33;0.90;;;0.90;;
33246;SDS011;19606;50.108;19.804;2022-08-06T11:51:38;1.38;;;1.15;;
33246;SDS011;19606;50.108;19.804;2022-08-06T11:54:27;1.15;;;1.13;;
33246;SDS011;19606;50.108;19.804;2022-08-06T11:59:38;3.67;;;1.50;;
33246;SDS011;19606;50.108;19.804;2022-08-06T12:02:05;3.43;;;1.57;;
33246;SDS011;19606;50.108;19.804;2022-08-06T12:09:43;2.40;;;1.50;;
33246;SDS011;19606;50.108;19.804;2022-08-06T12:14:57;3.50;;;1.50;;
33246;SDS011;19606;50.108;19.804;2022-08-06T12:17:25;1.40;;;1.30;;
33246;SDS011;19606;50.108;19.804;2022-08-06T12:19:52;3.25;;;1.80;;
33246;SDS011;19606;50.108;19.804;2022-08-06T12:22:19;2.20;;;1.95;;
33246;SDS011;19606;50.108;19.804;2022-08-06T12:24:48;2.75;;;2.35;;
33246;SDS011;19606;50.108;19.804;2022-08-06T12:27:14;3.03;;;2.72;;
33246;SDS011;19606;50.108;19.804;2022-08-06T12:29:41;3.75;;;3.45;;
33246;SDS011;19606;50.108;19.804;2022-08-06T12:32:21;6.90;;;4.95;;
33246;SDS011;19606;50.108;19.804;2022-08-06T12:34:49;5.80;;;5.28;;
33246;SDS011;19606;50.108;19.804;2022-08-06T12:37:16;5.78;;;5.28;;
33246;SDS011;19606;50.108;19.804;2022-08-06T12:39:42;6.22;;;5.55;;
33246;SDS011;19606;50.108;19.804;2022-08-06T12:42:27;7.10;;;6.40;;
33246;SDS011;19606;50.108;19.804;2022-08-06T12:44:53;6.18;;;5.57;;
33246;SDS011;19606;50.108;19.804;2022-08-06T12:47:20;6.03;;;5.43;;
33246;SDS011;19606;50.108;19.804;2022-08-06T12:49:46;6.85;;;6.15;;
33246;SDS011;19606;50.108;19.804;2022-08-06T12:52:13;7.07;;;6.38;;
33246;SDS011;19606;50.108;19.804;2022-08-06T12:54:42;7.00;;;6.40;;
33246;SDS011;19606;50.108;19.804;2022-08-06T12:57:08;8.05;;;6.57;;
33246;SDS011;19606;50.108;19.804;2022-08-06T12:59:34;8.32;;;6.82;;
33246;SDS011;19606;50.108;19.804;2022-08-06T13:02:00;8.30;;;7.13;;
33246;SDS011;19606;50.108;19.804;2022-08-06T13:04:27;11.27;;;8.95;;
33246;SDS011;19606;50.108;19.804;2022-08-06T13:06:54;9.02;;;8.10;;
33246;SDS011;19606;50.108;19.804;2022-08-06T13:09:30;10.65;;;8.82;;
33246;SDS011;19606;50.108;19.804;2022-08-06T13:11:56;9.23;;;8.00;;
33246;SDS011;19606;50.108;19.804;2022-08-06T13:14:22;10.02;;;8.30;;
33246;SDS011;19606;50.108;19.804;2022-08-06T13:16:48;9.45;;;8.02;;
33246;SDS011;19606;50.108;19.804;2022-08-06T13:19:16;9.98;;;8.38;;
33246;SDS011;19606;50.108;19.804;2022-08-06T13:21:43;11.60;;;10.07;;
33246;SDS011;19606;50.108;19.804;2022-08-06T13:24:11;10.90;;;9.32;;
33246;SDS011;19606;50.108;19.804;2022-08-06T13:26:50;10.60;;;9.50;;
33246;SDS011;19606;50.108;19.804;2022-08-06T13:29:18;15.07;;;9.57;;
33246;SDS011;19606;50.108;19.804;2022-08-06T13:31:45;13.88;;;11.23;;
33246;SDS011;19606;50.108;19.804;2022-08-06T13:34:12;13.75;;;12.07;;
33246;SDS011;19606;50.108;19.804;2022-08-06T13:36:40;14.00;;;12.50;;
33246;SDS011;19606;50.108;19.804;2022-08-06T13:39:17;13.98;;;12.35;;
33246;SDS011;19606;50.108;19.804;2022-08-06T13:41:43;17.75;;;12.95;;
33246;SDS011;19606;50.108;19.804;2022-08-06T13:44:25;17.67;;;14.52;;
33246;SDS011;19606;50.108;19.804;2022-08-06T13:46:51;15.02;;;12.80;;
33246;SDS011;19606;50.108;19.804;2022-08-06T13:49:17;17.55;;;13.18;;
33246;SDS011;19606;50.108;19.804;2022-08-06T13:51:43;15.13;;;13.15;;
33246;SDS011;19606;50.108;19.804;2022-08-06T13:54:09;13.95;;;12.45;;
33246;SDS011;19606;50.108;19.804;2022-08-06T13:56:36;12.55;;;10.80;;
33246;SDS011;19606;50.108;19.804;2022-08-06T13:59:03;13.80;;;11.15;;
33246;SDS011;19606;50.108;19.804;2022-08-06T14:01:29;13.98;;;11.00;;
33246;SDS011;19606;50.108;19.804;2022-08-06T14:03:55;13.63;;;9.75;;
33246;SDS011;19606;50.108;19.804;2022-08-06T14:06:21;11.82;;;8.60;;
33246;SDS011;19606;50.108;19.804;2022-08-06T14:08:47;9.02;;;6.97;;
33246;SDS011;19606;50.108;19.804;2022-08-06T14:11:13;7.60;;;6.47;;
33246;SDS011;19606;50.108;19.804;2022-08-06T14:13:39;6.70;;;5.93;;
33246;SDS011;19606;50.108;19.804;2022-08-06T14:16:05;7.63;;;5.95;;
33246;SDS011;19606;50.108;19.804;2022-08-06T14:18:31;13.63;;;7.43;;
33246;SDS011;19606;50.108;19.804;2022-08-06T14:20:57;6.20;;;4.85;;
33246;SDS011;19606;50.108;19.804;2022-08-06T14:23:25;6.47;;;5.78;;
33246;SDS011;19606;50.108;19.804;2022-08-06T14:25:51;5.20;;;4.70;;
33246;SDS011;19606;50.108;19.804;2022-08-06T14:28:17;7.63;;;5.43;;
33246;SDS011;19606;50.108;19.804;2022-08-06T14:30:45;8.63;;;6.65;;
33246;SDS011;19606;50.108;19.804;2022-08-06T14:33:11;9.40;;;7.55;;
33246;SDS011;19606;50.108;19.804;2022-08-06T14:35:37;14.73;;;11.98;;
33246;SDS011;19606;50.108;19.804;2022-08-06T14:38:04;11.32;;;9.57;;
33246;SDS011;19606;50.108;19.804;2022-08-06T14:40:31;16.20;;;10.27;;
33246;SDS011;19606;50.108;19.804;2022-08-06T14:43:16;11.82;;;9.98;;
33246;SDS011;19606;50.108;19.804;2022-08-06T14:46:00;7.72;;;6.45;;
33246;SDS011;19606;50.108;19.804;2022-08-06T14:48:26;10.07;;;7.63;;
33246;SDS011;19606;50.108;19.804;2022-08-06T14:50:52;6.32;;;5.32;;
33246;SDS011;19606;50.108;19.804;2022-08-06T14:53:18;8.02;;;7.10;;
33246;SDS011;19606;50.108;19.804;2022-08-06T14:55:44;5.30;;;4.68;;
33246;SDS011;19606;50.108;19.804;2022-08-06T14:58:11;4.40;;;4.03;;
33246;SDS011;19606;50.108;19.804;2022-08-06T15:00:37;4.53;;;4.13;;
33246;SDS011;19606;50.108;19.804;2022-08-06T15:03:07;4.22;;;3.70;;
33246;SDS011;19606;50.108;19.804;2022-08-06T15:05:33;4.32;;;3.47;;
33246;SDS011;19606;50.108;19.804;2022-08-06T15:08:00;3.47;;;3.08;;
33246;SDS011;19606;50.108;19.804;2022-08-06T15:10:26;4.55;;;3.72;;
33246;SDS011;19606;50.108;19.804;2022-08-06T15:12:52;4.18;;;3.33;;
33246;SDS011;19606;50.108;19.804;2022-08-06T15:15:18;4.30;;;3.47;;
33246;SDS011;19606;50.108;19.804;2022-08-06T15:17:44;5.20;;;3.55;;
33246;SDS011;19606;50.108;19.804;2022-08-06T15:20:10;3.80;;;3.50;;
33246;SDS011;19606;50.108;19.804;2022-08-06T15:22:36;4.15;;;3.30;;
33246;SDS011;19606;50.108;19.804;2022-08-06T15:25:03;8.55;;;4.32;;
33246;SDS011;19606;50.108;19.804;2022-08-06T15:27:29;5.18;;;3.78;;
33246;SDS011;19606;50.108;19.804;2022-08-06T15:29:55;2.92;;;2.50;;
33246;SDS011;19606;50.108;19.804;2022-08-06T15:32:23;3.47;;;3.13;;
33246;SDS011;19606;50.108;19.804;2022-08-06T15:34:49;6.00;;;3.55;;
33246;SDS011;19606;50.108;19.804;2022-08-06T15:37:15;6.82;;;3.30;;
33246;SDS011;19606;50.108;19.804;2022-08-06T15:39:44;3.90;;;2.90;;
33246;SDS011;19606;50.108;19.804;2022-08-06T15:42:10;5.85;;;2.72;;
33246;SDS011;19606;50.108;19.804;2022-08-06T15:44:36;6.93;;;2.58;;
33246;SDS011;19606;50.108;19.804;2022-08-06T15:47:03;3.72;;;3.00;;
33246;SDS011;19606;50.108;19.804;2022-08-06T15:49:29;5.57;;;3.10;;
33246;SDS011;19606;50.108;19.804;2022-08-06T15:51:58;3.17;;;2.88;;